createdAt,value
2023-02-17T00:01:21.710Z,14.76
2023-02-17T00:03:50.181Z,14.73
2023-02-17T00:06:21.182Z,14.72
2023-02-17T00:08:49.054Z,14.70
2023-02-17T00:11:16.960Z,14.72
2023-02-17T00:13:44.232Z,14.72
2023-02-17T00:16:23.446Z,14.68
2023-02-17T00:19:00.280Z,14.68
2023-02-17T00:21:31.961Z,14.67
2023-02-17T00:23:59.426Z,14.67
2023-02-17T00:26:26.253Z,14.66
2023-02-17T00:28:53.258Z,14.65
2023-02-17T00:31:23.437Z,14.65
2023-02-17T00:33:50.528Z,14.64
2023-02-17T00:36:20.016Z,14.62
2023-02-17T00:38:48.741Z,14.62
2023-02-17T00:41:18.280Z,14.62
2023-02-17T00:43:46.357Z,14.62
2023-02-17T00:46:13.435Z,14.61
2023-02-17T00:48:41.535Z,14.64
2023-02-17T00:51:09.536Z,14.65
2023-02-17T00:53:36.696Z,14.65
2023-02-17T00:56:04.405Z,14.66
2023-02-17T00:58:31.385Z,14.65
2023-02-17T01:00:58.836Z,14.66
2023-02-17T01:03:27.217Z,14.67
2023-02-17T01:05:55.568Z,14.68
2023-02-17T01:08:24.372Z,14.68
2023-02-17T01:10:52.660Z,14.68
2023-02-17T01:13:20.140Z,14.65
2023-02-17T01:15:51.434Z,14.66
2023-02-17T01:18:21.662Z,14.65
2023-02-17T01:20:48.603Z,14.66
2023-02-17T01:23:18.734Z,14.67
2023-02-17T01:25:49.026Z,14.67
2023-02-17T01:28:20.676Z,14.67
2023-02-17T01:30:49.088Z,14.67
2023-02-17T01:33:16.096Z,14.65
2023-02-17T01:35:43.223Z,14.68
2023-02-17T01:38:10.054Z,14.68
2023-02-17T01:40:36.995Z,14.68
2023-02-17T01:43:03.875Z,14.66
2023-02-17T01:45:45.705Z,14.67
2023-02-17T01:48:18.572Z,14.64
2023-02-17T01:50:54.068Z,14.65
2023-02-17T01:53:29.532Z,14.66
2023-02-17T01:55:57.044Z,14.66
2023-02-17T01:58:26.972Z,14.65
2023-02-17T02:00:59.218Z,14.64
2023-02-17T02:03:28.278Z,14.66
2023-02-17T02:05:55.998Z,14.66
2023-02-17T02:08:22.827Z,14.67
2023-02-17T02:10:49.608Z,14.65
2023-02-17T02:13:16.651Z,14.66
2023-02-17T02:16:25.172Z,14.64
2023-02-17T02:19:04.652Z,14.62
2023-02-17T02:22:13.513Z,14.57
2023-02-17T02:25:13.783Z,14.54
2023-02-17T02:28:22.774Z,14.50
2023-02-17T02:31:15.891Z,14.47
2023-02-17T02:33:59.523Z,14.45
2023-02-17T02:36:35.243Z,14.45
2023-02-17T02:39:15.947Z,14.43
2023-02-17T02:41:53.311Z,14.44
2023-02-17T02:44:21.779Z,14.43
2023-02-17T02:47:24.416Z,14.42
2023-02-17T02:49:51.304Z,14.39
2023-02-17T02:52:36.197Z,14.39
2023-02-17T02:55:31.096Z,14.39
2023-02-17T02:58:30.481Z,14.36
2023-02-17T03:01:06.788Z,14.35
2023-02-17T03:04:08.464Z,14.35
2023-02-17T03:07:01.673Z,14.34
2023-02-17T03:09:29.924Z,14.35
2023-02-17T03:11:58.716Z,14.39
2023-02-17T03:14:28.368Z,14.41
2023-02-17T03:16:55.404Z,14.42
2023-02-17T03:19:25.500Z,14.43
2023-02-17T03:22:28.868Z,14.43
2023-02-17T03:24:55.586Z,14.44
2023-02-17T03:27:22.318Z,14.46
2023-02-17T03:29:49.196Z,14.47
2023-02-17T03:32:16.017Z,14.49
2023-02-17T03:34:42.764Z,14.52
2023-02-17T03:37:09.528Z,14.51
2023-02-17T03:39:36.952Z,14.52
2023-02-17T03:42:03.756Z,14.53
2023-02-17T03:44:30.592Z,14.54
2023-02-17T03:46:57.387Z,14.54
2023-02-17T03:49:24.193Z,14.56
2023-02-17T03:51:51.320Z,14.57
2023-02-17T03:54:18.049Z,14.58
2023-02-17T03:56:44.969Z,14.58
2023-02-17T03:59:11.707Z,14.56
2023-02-17T04:01:38.550Z,14.58
2023-02-17T04:04:05.475Z,14.57
2023-02-17T04:06:32.366Z,14.58
2023-02-17T04:08:59.136Z,14.56
2023-02-17T04:11:26.203Z,14.56
2023-02-17T04:13:52.972Z,14.54
2023-02-17T04:16:19.752Z,14.54
2023-02-17T04:18:46.514Z,14.54
2023-02-17T04:21:13.264Z,14.53
2023-02-17T04:23:40.130Z,14.51
2023-02-17T04:26:09.000Z,14.50
2023-02-17T04:28:39.850Z,14.49
2023-02-17T04:31:06.802Z,14.47
2023-02-17T04:33:34.500Z,14.46
2023-02-17T04:36:01.827Z,14.46
2023-02-17T04:38:32.049Z,14.45
2023-02-17T04:41:00.483Z,14.45
2023-02-17T04:43:28.117Z,14.46
2023-02-17T04:45:55.441Z,14.45
2023-02-17T04:48:22.894Z,14.47
2023-02-17T04:50:49.804Z,14.49
2023-02-17T04:53:16.994Z,14.51
2023-02-17T04:55:44.054Z,14.52
2023-02-17T04:58:10.994Z,14.55
2023-02-17T05:00:38.003Z,14.56
2023-02-17T05:03:05.142Z,14.57
2023-02-17T05:05:32.071Z,14.61
2023-02-17T05:07:58.827Z,14.64
2023-02-17T05:10:25.662Z,14.66
2023-02-17T05:12:52.574Z,14.68
2023-02-17T05:15:20.632Z,14.70
2023-02-17T05:17:47.362Z,14.73
2023-02-17T05:20:14.495Z,14.75
2023-02-17T05:22:41.392Z,14.79
2023-02-17T05:25:08.456Z,14.81
2023-02-17T05:27:35.383Z,14.84
2023-02-17T05:30:02.406Z,14.85
2023-02-17T05:32:29.243Z,14.87
2023-02-17T05:34:55.991Z,14.88
2023-02-17T05:37:22.821Z,14.90
2023-02-17T05:39:49.617Z,14.91
2023-02-17T05:42:16.432Z,15.14
2023-02-17T05:44:43.192Z,15.13
2023-02-17T05:47:09.976Z,15.11
2023-02-17T05:49:36.736Z,15.05
2023-02-17T05:52:03.734Z,15.04
2023-02-17T05:54:30.543Z,15.05
2023-02-17T05:56:57.298Z,15.05
2023-02-17T05:59:24.448Z,15.07
2023-02-17T06:01:51.203Z,15.07
2023-02-17T06:04:17.977Z,15.08
2023-02-17T06:06:44.814Z,15.09
2023-02-17T06:09:11.520Z,15.10
2023-02-17T06:11:38.582Z,15.08
2023-02-17T06:14:05.331Z,15.07
2023-02-17T06:16:32.114Z,15.07
2023-02-17T06:19:00.144Z,15.07
2023-02-17T06:21:26.863Z,15.07
2023-02-17T06:23:53.665Z,15.08
2023-02-17T06:26:20.526Z,15.07
2023-02-17T06:28:47.415Z,15.08
2023-02-17T06:31:14.492Z,15.08
2023-02-17T06:33:41.308Z,15.09
2023-02-17T06:36:08.584Z,15.09
2023-02-17T06:38:35.493Z,15.07
2023-02-17T06:41:02.319Z,15.08
2023-02-17T06:43:29.025Z,15.09
2023-02-17T06:45:55.902Z,15.10
2023-02-17T06:48:22.702Z,15.10
2023-02-17T06:50:50.290Z,15.10
2023-02-17T06:53:17.050Z,15.12
2023-02-17T06:55:44.855Z,15.14
2023-02-17T06:58:11.596Z,15.12
2023-02-17T07:00:38.730Z,15.14
2023-02-17T07:03:05.728Z,15.13
2023-02-17T07:05:36.388Z,15.19
2023-02-17T07:08:04.498Z,15.18
2023-02-17T07:10:31.958Z,15.19
2023-02-17T07:12:58.925Z,15.20
2023-02-17T07:27:10.892Z,15.17
2023-02-17T07:30:41.933Z,15.09
2023-02-17T07:54:34.676Z,15.21
2023-02-17T07:57:22.915Z,15.25
2023-02-17T08:00:10.822Z,15.28
2023-02-17T08:02:52.166Z,15.29
2023-02-17T08:05:19.133Z,15.30
2023-02-17T08:07:46.110Z,15.37
2023-02-17T08:10:32.222Z,15.41
2023-02-17T08:13:18.117Z,15.41
2023-02-17T08:16:01.024Z,15.43
2023-02-17T08:18:38.416Z,15.45
2023-02-17T08:21:27.613Z,15.47
2023-02-17T08:24:00.449Z,15.51
2023-02-17T08:26:27.312Z,15.54
2023-02-17T08:28:54.027Z,15.60
2023-02-17T08:31:32.968Z,15.67
2023-02-17T08:34:07.114Z,15.72
2023-02-17T08:36:37.296Z,15.76
2023-02-17T08:39:10.122Z,15.85
2023-02-17T08:41:39.292Z,15.92
2023-02-17T08:44:14.225Z,16.00
2023-02-17T08:46:41.418Z,16.06
2023-02-17T08:49:08.761Z,16.12
2023-02-17T08:51:36.740Z,16.21
2023-02-17T08:54:06.350Z,16.28
2023-02-17T08:56:34.326Z,16.36
2023-02-17T08:59:01.429Z,16.43
2023-02-17T09:01:28.426Z,16.52
2023-02-17T09:03:57.321Z,16.62
2023-02-17T09:06:24.753Z,16.68
2023-02-17T09:08:51.494Z,16.76
2023-02-17T09:11:20.797Z,16.85
2023-02-17T09:13:47.589Z,16.94
2023-02-17T09:16:14.707Z,17.03
2023-02-17T09:18:41.614Z,17.14
2023-02-17T09:21:14.086Z,17.28
2023-02-17T09:23:41.338Z,17.42
2023-02-17T09:26:12.693Z,17.61
2023-02-17T09:28:40.049Z,17.82
2023-02-17T09:31:23.627Z,18.08
2023-02-17T09:33:51.277Z,18.31
2023-02-17T09:36:26.498Z,18.47
2023-02-17T09:38:54.224Z,18.63
2023-02-17T09:41:51.796Z,18.85
2023-02-17T09:44:35.420Z,19.03
2023-02-17T09:47:20.590Z,19.19
2023-02-17T09:50:12.075Z,19.33
2023-02-17T09:53:11.156Z,19.51
2023-02-17T09:55:47.840Z,19.76
2023-02-17T09:58:23.844Z,20.11
2023-02-17T10:01:04.601Z,20.58
2023-02-17T10:04:13.258Z,21.12
2023-02-17T10:06:46.061Z,21.52
2023-02-17T10:09:34.370Z,21.91
2023-02-17T10:12:14.251Z,22.27
2023-02-17T10:15:04.244Z,22.61
2023-02-17T10:17:40.449Z,22.96
2023-02-17T10:20:17.584Z,23.23
2023-02-17T10:22:52.749Z,23.45
2023-02-17T10:25:38.122Z,23.68
2023-02-17T10:28:22.799Z,23.78
2023-02-17T10:31:02.178Z,23.81
2023-02-17T10:33:56.982Z,23.75
2023-02-17T10:36:53.516Z,23.69
2023-02-17T10:39:49.162Z,23.74
2023-02-17T10:42:32.889Z,23.85
2023-02-17T10:45:51.204Z,23.90
2023-02-17T10:48:24.646Z,23.90
2023-02-17T10:50:53.819Z,23.92
2023-02-17T10:53:30.079Z,24.02
2023-02-17T10:56:14.499Z,24.15
2023-02-17T10:58:56.098Z,24.20
2023-02-17T11:01:26.232Z,24.19
2023-02-17T11:04:10.650Z,24.05
2023-02-17T11:06:48.948Z,23.85
2023-02-17T11:09:21.732Z,23.67
2023-02-17T11:11:59.029Z,23.51
2023-02-17T11:14:33.109Z,23.35
2023-02-17T11:17:12.413Z,23.20
2023-02-17T11:19:39.201Z,23.03
2023-02-17T11:22:38.550Z,22.88
2023-02-17T11:25:24.251Z,22.68
2023-02-17T11:28:04.183Z,22.52
2023-02-17T11:30:34.832Z,22.38
2023-02-17T11:33:16.423Z,22.18
2023-02-17T11:35:58.678Z,22.01
2023-02-17T11:38:32.960Z,21.83
2023-02-17T11:41:04.470Z,21.72
2023-02-17T11:43:33.078Z,21.57
2023-02-17T11:46:12.750Z,21.47
2023-02-17T11:49:04.006Z,21.35
2023-02-17T11:51:39.559Z,21.32
2023-02-17T11:54:45.769Z,21.30
2023-02-17T11:57:40.700Z,21.30
2023-02-17T12:00:20.625Z,21.29
2023-02-17T12:03:36.453Z,21.28
2023-02-17T12:06:20.964Z,21.31
2023-02-17T12:08:59.349Z,21.38
2023-02-17T12:11:37.215Z,21.47
2023-02-17T12:14:25.242Z,21.60
2023-02-17T12:17:21.982Z,21.73
2023-02-17T12:20:24.046Z,21.82
2023-02-17T12:23:24.560Z,21.95
2023-02-17T12:26:12.663Z,21.89
2023-02-17T12:29:02.310Z,21.81
2023-02-17T12:32:05.947Z,21.72
2023-02-17T12:34:46.290Z,21.69
2023-02-17T12:37:21.729Z,21.69
2023-02-17T12:40:06.636Z,21.73
2023-02-17T12:42:53.728Z,21.81
2023-02-17T12:45:27.749Z,21.91
2023-02-17T12:48:06.707Z,21.97
2023-02-17T12:50:43.418Z,22.00
2023-02-17T12:53:29.085Z,22.00
2023-02-17T12:56:04.853Z,22.01
2023-02-17T12:58:33.375Z,22.00
2023-02-17T13:01:18.387Z,21.97
2023-02-17T13:03:46.123Z,21.91
2023-02-17T13:06:36.702Z,21.80
2023-02-17T13:09:15.155Z,21.69
2023-02-17T13:11:41.986Z,21.61
2023-02-17T13:14:57.245Z,21.51
2023-02-17T13:17:35.388Z,21.46
2023-02-17T13:20:15.107Z,21.46
2023-02-17T13:23:28.296Z,21.49
2023-02-17T13:26:25.997Z,21.45
2023-02-17T13:29:07.900Z,21.54
2023-02-17T13:31:53.834Z,21.52
2023-02-17T13:34:42.253Z,21.50
2023-02-17T13:37:35.321Z,21.44
2023-02-17T13:40:24.085Z,21.42
2023-02-17T13:43:08.970Z,21.41
2023-02-17T13:46:04.606Z,21.36
2023-02-17T13:48:34.858Z,21.35
2023-02-17T13:51:07.716Z,21.31
2023-02-17T13:53:51.539Z,21.27
2023-02-17T13:56:28.421Z,21.19
2023-02-17T13:59:07.094Z,21.15
2023-02-17T14:01:40.580Z,21.13
2023-02-17T14:04:26.943Z,21.07
2023-02-17T14:06:57.382Z,21.04
2023-02-17T14:09:32.180Z,20.99
2023-02-17T14:12:03.575Z,20.96
2023-02-17T14:14:38.155Z,20.91
2023-02-17T14:17:26.787Z,20.88
2023-02-17T14:19:53.563Z,20.80
2023-02-17T14:22:35.358Z,20.78
2023-02-17T14:25:14.092Z,20.71
2023-02-17T14:27:47.585Z,20.66
2023-02-17T14:30:45.837Z,20.60
2023-02-17T14:33:16.069Z,20.55
2023-02-17T14:35:54.650Z,20.49
2023-02-17T14:38:37.247Z,20.44
2023-02-17T14:41:05.863Z,20.37
2023-02-17T14:43:33.067Z,20.32
2023-02-17T14:45:59.952Z,20.26
2023-02-17T14:48:28.003Z,20.24
2023-02-17T14:50:57.169Z,20.19
2023-02-17T14:53:29.527Z,20.20
2023-02-17T14:56:04.649Z,20.19
2023-02-17T14:58:32.094Z,20.18
2023-02-17T15:01:00.285Z,20.19
2023-02-17T15:03:27.871Z,20.16
2023-02-17T15:05:58.619Z,20.13
2023-02-17T15:08:41.643Z,20.09
2023-02-17T15:11:27.885Z,20.05
2023-02-17T15:14:24.874Z,19.94
2023-02-17T15:16:55.125Z,19.85
2023-02-17T15:22:44.400Z,19.63
2023-02-17T15:25:19.176Z,19.54
2023-02-17T15:27:46.779Z,19.45
2023-02-17T15:30:18.161Z,19.39
2023-02-17T15:32:46.612Z,19.30
2023-02-17T15:35:20.039Z,19.23
2023-02-17T15:37:53.721Z,19.15
2023-02-17T15:40:27.448Z,19.09
2023-02-17T15:42:57.711Z,19.02
2023-02-17T15:45:40.611Z,18.95
2023-02-17T15:54:12.950Z,18.72
2023-02-17T16:00:20.228Z,18.92
2023-02-17T16:13:20.917Z,18.27
2023-02-17T16:37:14.146Z,17.61
2023-02-17T16:40:02.340Z,17.54
2023-02-17T16:42:46.254Z,17.51
2023-02-17T16:45:47.653Z,17.44
2023-02-17T16:48:28.191Z,17.34
2023-02-17T16:51:12.255Z,17.30
2023-02-17T16:53:53.896Z,17.23
2023-02-17T16:56:41.539Z,17.15
2023-02-17T16:59:21.377Z,17.05
2023-02-17T17:01:51.197Z,16.96
2023-02-17T17:04:18.268Z,16.89
2023-02-17T17:06:52.098Z,16.87
2023-02-17T17:09:28.704Z,16.81
2023-02-17T17:11:56.109Z,16.73
2023-02-17T17:17:21.786Z,16.65
2023-02-17T17:20:00.129Z,16.60
2023-02-17T17:22:36.444Z,16.59
2023-02-17T17:28:39.198Z,16.45
2023-02-17T18:25:31.888Z,15.63
2023-02-17T18:28:36.006Z,15.64
2023-02-17T20:29:38.162Z,15.30
2023-02-17T20:33:33.188Z,15.27
2023-02-17T20:36:26.314Z,15.26
2023-02-17T21:01:45.116Z,15.27
2023-02-17T21:18:23.804Z,15.29
2023-02-17T21:22:45.678Z,15.28
2023-02-17T21:25:10.452Z,15.22
2023-02-17T21:27:37.742Z,15.28
2023-02-17T21:30:13.327Z,15.29
2023-02-17T21:32:41.417Z,15.31
2023-02-17T21:35:11.814Z,15.33
2023-02-17T21:37:43.182Z,15.33
2023-02-17T21:40:11.338Z,15.32
2023-02-17T21:42:57.860Z,15.34
2023-02-17T21:45:25.717Z,15.32
2023-02-17T21:47:52.735Z,15.31
2023-02-17T21:50:21.255Z,15.34
2023-02-17T21:52:48.184Z,15.35
2023-02-17T21:55:14.956Z,15.34
2023-02-17T21:57:41.711Z,15.36
2023-02-17T22:00:09.140Z,15.36
2023-02-17T22:02:36.607Z,15.36
2023-02-17T22:05:04.080Z,15.38
2023-02-17T22:07:31.086Z,15.39
2023-02-17T22:09:59.859Z,15.40
2023-02-17T22:12:27.329Z,15.38
2023-02-17T22:14:54.043Z,15.40
2023-02-17T22:17:20.811Z,15.39
2023-02-17T22:19:47.586Z,15.37
2023-02-17T22:22:14.341Z,15.38
2023-02-17T22:24:41.079Z,15.37
2023-02-17T22:27:07.885Z,15.36
2023-02-17T22:29:34.625Z,15.35
2023-02-17T22:32:01.500Z,15.35
2023-02-17T22:34:37.232Z,15.33
2023-02-17T22:37:07.196Z,15.31
2023-02-17T22:39:35.643Z,15.28
2023-02-17T22:42:11.496Z,15.29
2023-02-17T22:44:38.589Z,15.26
2023-02-17T22:47:05.827Z,15.28
2023-02-17T22:49:33.073Z,15.28
2023-02-17T22:52:02.864Z,15.28
2023-02-17T22:55:08.493Z,15.25
2023-02-17T23:01:43.870Z,15.16
2023-02-17T23:04:36.947Z,15.18
2023-02-17T23:15:55.200Z,15.08
2023-02-17T23:22:22.638Z,15.07
2023-02-17T23:25:04.055Z,15.09
